sensor_id;sensor_type;location;lat;lon;timestamp;temperature;humidity
45060;DHT22;30799;49.060;9.312;2022-09-03T00:00:12;23.70;55.30
45060;DHT22;30799;49.060;9.312;2022-09-03T00:03:03;23.70;55.20
45060;DHT22;30799;49.060;9.312;2022-09-03T00:05:39;23.70;55.20
45060;DHT22;30799;49.060;9.312;2022-09-03T00:08:13;23.70;55.20
45060;DHT22;30799;49.060;9.312;2022-09-03T00:10:56;23.70;55.20
45060;DHT22;30799;49.060;9.312;2022-09-03T00:13:39;23.70;55.30
45060;DHT22;30799;49.060;9.312;2022-09-03T00:16:11;23.70;55.20
45060;DHT22;30799;49.060;9.312;2022-09-03T00:18:45;23.70;55.30
45060;DHT22;30799;49.060;9.312;2022-09-03T00:21:17;23.70;55.30
45060;DHT22;30799;49.060;9.312;2022-09-03T00:23:48;23.70;55.20
45060;DHT22;30799;49.060;9.312;2022-09-03T00:26:21;23.70;55.20
45060;DHT22;30799;49.060;9.312;2022-09-03T00:28:58;23.70;55.20
45060;DHT22;30799;49.060;9.312;2022-09-03T00:31:32;23.70;55.20
45060;DHT22;30799;49.060;9.312;2022-09-03T00:34:16;23.70;55.20
45060;DHT22;30799;49.060;9.312;2022-09-03T00:36:46;23.70;55.20
45060;DHT22;30799;49.060;9.312;2022-09-03T00:39:18;23.70;55.20
45060;DHT22;30799;49.060;9.312;2022-09-03T00:53:39;23.70;55.10
45060;DHT22;30799;49.060;9.312;2022-09-03T01:04:57;23.70;55.10
45060;DHT22;30799;49.060;9.312;2022-09-03T01:07:36;23.70;55.10
45060;DHT22;30799;49.060;9.312;2022-09-03T01:12:59;23.70;55.10
45060;DHT22;30799;49.060;9.312;2022-09-03T01:15:51;23.70;55.10
45060;DHT22;30799;49.060;9.312;2022-09-03T01:18:43;23.70;55.10
45060;DHT22;30799;49.060;9.312;2022-09-03T01:21:28;23.70;55.10
45060;DHT22;30799;49.060;9.312;2022-09-03T01:27:14;23.70;55.10
45060;DHT22;30799;49.060;9.312;2022-09-03T01:30:08;23.70;55.10
45060;DHT22;30799;49.060;9.312;2022-09-03T01:35:47;23.70;55.10
45060;DHT22;30799;49.060;9.312;2022-09-03T01:41:34;23.70;55.00
45060;DHT22;30799;49.060;9.312;2022-09-03T01:44:58;23.70;55.00
45060;DHT22;30799;49.060;9.312;2022-09-03T01:47:46;23.70;55.00
45060;DHT22;30799;49.060;9.312;2022-09-03T01:50:38;23.70;55.00
45060;DHT22;30799;49.060;9.312;2022-09-03T01:58:34;23.70;55.00
45060;DHT22;30799;49.060;9.312;2022-09-03T02:01:09;23.70;55.00
45060;DHT22;30799;49.060;9.312;2022-09-03T02:03:39;23.70;55.10
45060;DHT22;30799;49.060;9.312;2022-09-03T02:06:09;23.70;55.10
45060;DHT22;30799;49.060;9.312;2022-09-03T02:08:37;23.70;55.00
45060;DHT22;30799;49.060;9.312;2022-09-03T02:11:05;23.70;55.10
45060;DHT22;30799;49.060;9.312;2022-09-03T02:13:40;23.70;55.10
45060;DHT22;30799;49.060;9.312;2022-09-03T02:16:20;23.70;55.00
45060;DHT22;30799;49.060;9.312;2022-09-03T02:18:51;23.70;55.00
45060;DHT22;30799;49.060;9.312;2022-09-03T02:21:20;23.70;55.10
45060;DHT22;30799;49.060;9.312;2022-09-03T02:23:48;23.70;55.10
45060;DHT22;30799;49.060;9.312;2022-09-03T02:26:20;23.70;55.10
45060;DHT22;30799;49.060;9.312;2022-09-03T02:28:48;23.70;55.10
45060;DHT22;30799;49.060;9.312;2022-09-03T02:31:15;23.70;55.10
45060;DHT22;30799;49.060;9.312;2022-09-03T02:33:45;23.70;55.10
45060;DHT22;30799;49.060;9.312;2022-09-03T02:36:16;23.70;55.10
45060;DHT22;30799;49.060;9.312;2022-09-03T02:38:45;23.70;55.10
45060;DHT22;30799;49.060;9.312;2022-09-03T02:41:12;23.70;55.10
45060;DHT22;30799;49.060;9.312;2022-09-03T02:44:01;23.70;55.10
45060;DHT22;30799;49.060;9.312;2022-09-03T02:47:00;23.70;55.10
45060;DHT22;30799;49.060;9.312;2022-09-03T02:49:26;23.70;55.10
45060;DHT22;30799;49.060;9.312;2022-09-03T02:52:06;23.70;55.10
45060;DHT22;30799;49.060;9.312;2022-09-03T02:54:35;23.70;55.10
45060;DHT22;30799;49.060;9.312;2022-09-03T02:57:07;23.70;55.10
45060;DHT22;30799;49.060;9.312;2022-09-03T02:59:34;23.70;55.10
45060;DHT22;30799;49.060;9.312;2022-09-03T03:02:02;23.70;55.00
45060;DHT22;30799;49.060;9.312;2022-09-03T03:04:30;23.70;55.10
45060;DHT22;30799;49.060;9.312;2022-09-03T03:06:57;23.70;55.10
45060;DHT22;30799;49.060;9.312;2022-09-03T03:09:24;23.70;55.00
45060;DHT22;30799;49.060;9.312;2022-09-03T03:11:51;23.70;55.00
45060;DHT22;30799;49.060;9.312;2022-09-03T03:14:19;23.70;55.10
45060;DHT22;30799;49.060;9.312;2022-09-03T03:16:45;23.70;55.00
45060;DHT22;30799;49.060;9.312;2022-09-03T03:19:12;23.70;55.10
45060;DHT22;30799;49.060;9.312;2022-09-03T03:21:39;23.70;55.10
45060;DHT22;30799;49.060;9.312;2022-09-03T03:24:06;23.70;55.10
45060;DHT22;30799;49.060;9.312;2022-09-03T03:26:33;23.70;55.10
45060;DHT22;30799;49.060;9.312;2022-09-03T03:29:00;23.70;55.00
45060;DHT22;30799;49.060;9.312;2022-09-03T03:31:30;23.70;55.10
45060;DHT22;30799;49.060;9.312;2022-09-03T03:33:59;23.70;55.10
45060;DHT22;30799;49.060;9.312;2022-09-03T03:36:32;23.70;55.10
45060;DHT22;30799;49.060;9.312;2022-09-03T03:38:59;23.70;55.10
45060;DHT22;30799;49.060;9.312;2022-09-03T03:41:31;23.70;55.10
45060;DHT22;30799;49.060;9.312;2022-09-03T03:43:59;23.70;55.10
45060;DHT22;30799;49.060;9.312;2022-09-03T03:46:35;23.70;55.10
45060;DHT22;30799;49.060;9.312;2022-09-03T03:49:02;23.70;55.10
45060;DHT22;30799;49.060;9.312;2022-09-03T03:51:30;23.70;55.10
45060;DHT22;30799;49.060;9.312;2022-09-03T03:53:58;23.70;55.00
45060;DHT22;30799;49.060;9.312;2022-09-03T03:56:30;23.70;55.10
45060;DHT22;30799;49.060;9.312;2022-09-03T03:58:58;23.70;55.70
45060;DHT22;30799;49.060;9.312;2022-09-03T04:01:26;23.70;55.70
45060;DHT22;30799;49.060;9.312;2022-09-03T04:03:57;23.70;55.10
45060;DHT22;30799;49.060;9.312;2022-09-03T04:06:25;23.70;55.10
45060;DHT22;30799;49.060;9.312;2022-09-03T04:08:52;23.70;55.00
45060;DHT22;30799;49.060;9.312;2022-09-03T04:11:20;23.70;55.00
45060;DHT22;30799;49.060;9.312;2022-09-03T04:13:48;23.70;55.00
45060;DHT22;30799;49.060;9.312;2022-09-03T04:16:16;23.70;55.00
45060;DHT22;30799;49.060;9.312;2022-09-03T04:18:44;23.70;55.00
45060;DHT22;30799;49.060;9.312;2022-09-03T04:21:14;23.70;55.00
45060;DHT22;30799;49.060;9.312;2022-09-03T04:23:43;23.70;55.00
45060;DHT22;30799;49.060;9.312;2022-09-03T04:26:16;23.70;55.10
45060;DHT22;30799;49.060;9.312;2022-09-03T04:28:43;23.70;55.10
45060;DHT22;30799;49.060;9.312;2022-09-03T04:31:12;23.70;55.00
45060;DHT22;30799;49.060;9.312;2022-09-03T04:33:39;23.60;55.00
45060;DHT22;30799;49.060;9.312;2022-09-03T04:38:37;23.70;55.00
45060;DHT22;30799;49.060;9.312;2022-09-03T04:41:06;23.60;55.00
45060;DHT22;30799;49.060;9.312;2022-09-03T04:43:34;23.60;55.00
45060;DHT22;30799;49.060;9.312;2022-09-03T04:46:05;23.70;55.00
45060;DHT22;30799;49.060;9.312;2022-09-03T04:48:33;23.70;55.10
45060;DHT22;30799;49.060;9.312;2022-09-03T04:51:08;23.70;55.10
45060;DHT22;30799;49.060;9.312;2022-09-03T04:53:38;23.70;55.10
45060;DHT22;30799;49.060;9.312;2022-09-03T04:56:32;23.70;55.10
45060;DHT22;30799;49.060;9.312;2022-09-03T04:59:04;23.70;55.00
45060;DHT22;30799;49.060;9.312;2022-09-03T05:01:32;23.70;55.10
45060;DHT22;30799;49.060;9.312;2022-09-03T05:04:00;23.70;55.00
45060;DHT22;30799;49.060;9.312;2022-09-03T05:06:28;23.70;55.10
45060;DHT22;30799;49.060;9.312;2022-09-03T05:08:56;23.60;55.00
45060;DHT22;30799;49.060;9.312;2022-09-03T05:11:25;23.60;55.00
45060;DHT22;30799;49.060;9.312;2022-09-03T05:13:53;23.60;55.00
45060;DHT22;30799;49.060;9.312;2022-09-03T05:16:21;23.70;55.10
45060;DHT22;30799;49.060;9.312;2022-09-03T05:18:53;23.60;55.00
45060;DHT22;30799;49.060;9.312;2022-09-03T05:21:21;23.60;55.00
45060;DHT22;30799;49.060;9.312;2022-09-03T05:23:49;23.70;55.00
45060;DHT22;30799;49.060;9.312;2022-09-03T05:26:23;23.70;55.00
45060;DHT22;30799;49.060;9.312;2022-09-03T05:28:56;23.70;55.10
45060;DHT22;30799;49.060;9.312;2022-09-03T05:31:24;23.70;55.10
45060;DHT22;30799;49.060;9.312;2022-09-03T05:33:56;23.60;55.00
45060;DHT22;30799;49.060;9.312;2022-09-03T05:36:27;23.60;55.00
45060;DHT22;30799;49.060;9.312;2022-09-03T05:38:54;23.60;55.00
45060;DHT22;30799;49.060;9.312;2022-09-03T05:41:24;23.70;55.10
45060;DHT22;30799;49.060;9.312;2022-09-03T05:43:52;23.60;55.00
45060;DHT22;30799;49.060;9.312;2022-09-03T05:46:27;23.70;55.10
45060;DHT22;30799;49.060;9.312;2022-09-03T05:48:59;23.60;55.00
45060;DHT22;30799;49.060;9.312;2022-09-03T05:51:27;23.60;55.10
45060;DHT22;30799;49.060;9.312;2022-09-03T05:53:54;23.60;55.10
45060;DHT22;30799;49.060;9.312;2022-09-03T05:56:23;23.60;55.10
45060;DHT22;30799;49.060;9.312;2022-09-03T05:58:52;23.60;55.10
45060;DHT22;30799;49.060;9.312;2022-09-03T06:01:24;23.70;55.10
45060;DHT22;30799;49.060;9.312;2022-09-03T06:06:25;23.60;55.10
45060;DHT22;30799;49.060;9.312;2022-09-03T06:08:57;23.60;55.10
45060;DHT22;30799;49.060;9.312;2022-09-03T06:11:27;23.60;55.10
45060;DHT22;30799;49.060;9.312;2022-09-03T06:13:55;23.60;55.10
45060;DHT22;30799;49.060;9.312;2022-09-03T06:16:23;23.60;55.10
45060;DHT22;30799;49.060;9.312;2022-09-03T06:18:58;23.60;55.10
45060;DHT22;30799;49.060;9.312;2022-09-03T06:21:25;23.60;55.10
45060;DHT22;30799;49.060;9.312;2022-09-03T06:23:54;23.70;55.10
45060;DHT22;30799;49.060;9.312;2022-09-03T06:26:26;23.70;55.10
45060;DHT22;30799;49.060;9.312;2022-09-03T06:28:55;23.60;55.10
45060;DHT22;30799;49.060;9.312;2022-09-03T06:31:22;23.60;55.10
45060;DHT22;30799;49.060;9.312;2022-09-03T06:33:49;23.60;55.10
45060;DHT22;30799;49.060;9.312;2022-09-03T06:36:17;23.60;55.10
45060;DHT22;30799;49.060;9.312;2022-09-03T06:38:45;23.60;55.10
45060;DHT22;30799;49.060;9.312;2022-09-03T06:41:17;23.70;55.20
45060;DHT22;30799;49.060;9.312;2022-09-03T06:43:50;23.60;55.10
45060;DHT22;30799;49.060;9.312;2022-09-03T06:46:19;23.70;55.20
45060;DHT22;30799;49.060;9.312;2022-09-03T06:48:46;23.70;55.20
45060;DHT22;30799;49.060;9.312;2022-09-03T06:51:15;23.60;55.20
45060;DHT22;30799;49.060;9.312;2022-09-03T06:53:48;23.70;55.20
45060;DHT22;30799;49.060;9.312;2022-09-03T06:56:18;23.70;55.20
45060;DHT22;30799;49.060;9.312;2022-09-03T06:58:46;23.60;55.20
45060;DHT22;30799;49.060;9.312;2022-09-03T07:01:17;23.70;55.20
45060;DHT22;30799;49.060;9.312;2022-09-03T07:03:47;23.70;55.20
45060;DHT22;30799;49.060;9.312;2022-09-03T07:06:16;23.60;55.20
45060;DHT22;30799;49.060;9.312;2022-09-03T07:08:44;23.70;55.20
45060;DHT22;30799;49.060;9.312;2022-09-03T07:11:14;23.70;55.30
45060;DHT22;30799;49.060;9.312;2022-09-03T07:13:44;23.70;55.30
45060;DHT22;30799;49.060;9.312;2022-09-03T07:16:14;23.70;55.30
45060;DHT22;30799;49.060;9.312;2022-09-03T07:18:41;23.70;55.30
45060;DHT22;30799;49.060;9.312;2022-09-03T07:21:16;23.70;55.30
45060;DHT22;30799;49.060;9.312;2022-09-03T07:23:43;23.70;55.40
45060;DHT22;30799;49.060;9.312;2022-09-03T07:26:13;23.70;55.40
45060;DHT22;30799;49.060;9.312;2022-09-03T07:28:41;23.70;55.40
45060;DHT22;30799;49.060;9.312;2022-09-03T07:31:09;23.70;55.60
45060;DHT22;30799;49.060;9.312;2022-09-03T07:33:40;23.70;55.50
45060;DHT22;30799;49.060;9.312;2022-09-03T07:36:09;23.70;55.50
45060;DHT22;30799;49.060;9.312;2022-09-03T07:38:36;23.70;55.50
45060;DHT22;30799;49.060;9.312;2022-09-03T07:41:05;23.70;55.50
45060;DHT22;30799;49.060;9.312;2022-09-03T07:43:36;23.70;55.50
45060;DHT22;30799;49.060;9.312;2022-09-03T07:46:06;23.70;55.50
45060;DHT22;30799;49.060;9.312;2022-09-03T07:48:33;23.70;55.50
45060;DHT22;30799;49.060;9.312;2022-09-03T07:51:03;23.70;55.50
45060;DHT22;30799;49.060;9.312;2022-09-03T07:53:29;23.70;55.60
45060;DHT22;30799;49.060;9.312;2022-09-03T07:56:07;23.70;55.60
45060;DHT22;30799;49.060;9.312;2022-09-03T07:58:34;23.70;55.60
45060;DHT22;30799;49.060;9.312;2022-09-03T08:01:10;23.70;55.60
45060;DHT22;30799;49.060;9.312;2022-09-03T08:03:41;23.70;55.60
45060;DHT22;30799;49.060;9.312;2022-09-03T08:06:11;23.70;55.60
45060;DHT22;30799;49.060;9.312;2022-09-03T08:08:38;23.70;55.60
45060;DHT22;30799;49.060;9.312;2022-09-03T08:11:08;23.70;55.60
45060;DHT22;30799;49.060;9.312;2022-09-03T08:13:41;23.70;55.60
45060;DHT22;30799;49.060;9.312;2022-09-03T08:16:11;23.70;55.60
45060;DHT22;30799;49.060;9.312;2022-09-03T08:18:38;23.70;55.60
45060;DHT22;30799;49.060;9.312;2022-09-03T08:21:13;23.70;55.60
45060;DHT22;30799;49.060;9.312;2022-09-03T08:23:43;23.70;55.60
45060;DHT22;30799;49.060;9.312;2022-09-03T08:26:10;23.70;55.60
45060;DHT22;30799;49.060;9.312;2022-09-03T08:28:38;23.70;55.60
45060;DHT22;30799;49.060;9.312;2022-09-03T08:33:32;23.70;55.60
45060;DHT22;30799;49.060;9.312;2022-09-03T08:36:11;23.70;55.60
45060;DHT22;30799;49.060;9.312;2022-09-03T08:38:40;23.70;55.70
45060;DHT22;30799;49.060;9.312;2022-09-03T08:47:04;23.70;55.60
45060;DHT22;30799;49.060;9.312;2022-09-03T08:49:45;23.70;55.60
45060;DHT22;30799;49.060;9.312;2022-09-03T08:52:28;23.70;55.60
45060;DHT22;30799;49.060;9.312;2022-09-03T08:55:15;23.70;55.60
45060;DHT22;30799;49.060;9.312;2022-09-03T08:57:47;23.70;55.60
45060;DHT22;30799;49.060;9.312;2022-09-03T09:00:15;23.70;55.70
45060;DHT22;30799;49.060;9.312;2022-09-03T09:05:59;23.70;55.70
45060;DHT22;30799;49.060;9.312;2022-09-03T09:08:43;23.70;55.60
45060;DHT22;30799;49.060;9.312;2022-09-03T09:11:37;23.70;55.70
45060;DHT22;30799;49.060;9.312;2022-09-03T09:14:18;23.70;55.60
45060;DHT22;30799;49.060;9.312;2022-09-03T09:19:42;23.70;55.70
45060;DHT22;30799;49.060;9.312;2022-09-03T09:22:21;23.70;55.70
45060;DHT22;30799;49.060;9.312;2022-09-03T09:24:52;23.70;55.70
45060;DHT22;30799;49.060;9.312;2022-09-03T09:27:20;23.70;55.70
45060;DHT22;30799;49.060;9.312;2022-09-03T09:29:49;23.70;55.70
45060;DHT22;30799;49.060;9.312;2022-09-03T09:32:18;23.70;55.80
45060;DHT22;30799;49.060;9.312;2022-09-03T09:34:47;23.70;55.70
45060;DHT22;30799;49.060;9.312;2022-09-03T09:37:18;23.70;55.70
45060;DHT22;30799;49.060;9.312;2022-09-03T09:39:58;23.70;55.80
45060;DHT22;30799;49.060;9.312;2022-09-03T09:42:25;23.70;55.80
45060;DHT22;30799;49.060;9.312;2022-09-03T09:44:53;23.70;55.80
45060;DHT22;30799;49.060;9.312;2022-09-03T09:49:56;23.70;55.80
45060;DHT22;30799;49.060;9.312;2022-09-03T09:52:25;23.70;55.70
45060;DHT22;30799;49.060;9.312;2022-09-03T09:55:09;23.70;55.70
45060;DHT22;30799;49.060;9.312;2022-09-03T09:57:35;23.70;55.80
45060;DHT22;30799;49.060;9.312;2022-09-03T10:00:09;23.70;55.80
45060;DHT22;30799;49.060;9.312;2022-09-03T10:02:53;23.70;55.80
45060;DHT22;30799;49.060;9.312;2022-09-03T10:05:28;23.70;55.80
45060;DHT22;30799;49.060;9.312;2022-09-03T10:08:05;23.70;55.80
45060;DHT22;30799;49.060;9.312;2022-09-03T10:10:38;23.70;55.80
45060;DHT22;30799;49.060;9.312;2022-09-03T10:13:13;23.80;55.80
45060;DHT22;30799;49.060;9.312;2022-09-03T10:15:51;23.70;55.80
45060;DHT22;30799;49.060;9.312;2022-09-03T10:21:05;23.80;55.80
45060;DHT22;30799;49.060;9.312;2022-09-03T10:23:55;23.70;55.80
45060;DHT22;30799;49.060;9.312;2022-09-03T10:26:24;23.70;55.80
45060;DHT22;30799;49.060;9.312;2022-09-03T10:29:00;23.70;55.80
45060;DHT22;30799;49.060;9.312;2022-09-03T10:31:43;23.80;55.80
45060;DHT22;30799;49.060;9.312;2022-09-03T10:34:46;23.80;55.80
45060;DHT22;30799;49.060;9.312;2022-09-03T10:37:26;23.80;55.80
45060;DHT22;30799;49.060;9.312;2022-09-03T10:42:47;23.80;55.90
45060;DHT22;30799;49.060;9.312;2022-09-03T10:45:28;23.80;55.90
45060;DHT22;30799;49.060;9.312;2022-09-03T10:51:15;23.80;55.80
45060;DHT22;30799;49.060;9.312;2022-09-03T11:05:04;23.80;55.90
45060;DHT22;30799;49.060;9.312;2022-09-03T11:07:36;23.80;55.90
45060;DHT22;30799;49.060;9.312;2022-09-03T11:12:48;23.80;55.90
45060;DHT22;30799;49.060;9.312;2022-09-03T11:15:31;23.80;55.90
45060;DHT22;30799;49.060;9.312;2022-09-03T11:18:26;23.80;55.90
45060;DHT22;30799;49.060;9.312;2022-09-03T11:20:56;23.80;55.90
45060;DHT22;30799;49.060;9.312;2022-09-03T11:23:27;23.80;55.90
45060;DHT22;30799;49.060;9.312;2022-09-03T11:25:59;23.80;55.90
45060;DHT22;30799;49.060;9.312;2022-09-03T11:28:54;23.80;55.90
45060;DHT22;30799;49.060;9.312;2022-09-03T11:34:12;23.80;55.90
45060;DHT22;30799;49.060;9.312;2022-09-03T11:37:22;23.80;55.90
45060;DHT22;30799;49.060;9.312;2022-09-03T11:39:55;23.80;55.90
45060;DHT22;30799;49.060;9.312;2022-09-03T11:42:37;23.80;55.90
45060;DHT22;30799;49.060;9.312;2022-09-03T11:45:35;23.80;55.90
45060;DHT22;30799;49.060;9.312;2022-09-03T11:48:16;23.80;55.90
45060;DHT22;30799;49.060;9.312;2022-09-03T11:50:52;23.80;55.90
45060;DHT22;30799;49.060;9.312;2022-09-03T11:55:59;23.80;55.90
45060;DHT22;30799;49.060;9.312;2022-09-03T11:58:31;23.80;56.00
45060;DHT22;30799;49.060;9.312;2022-09-03T12:01:07;23.80;55.90
45060;DHT22;30799;49.060;9.312;2022-09-03T12:03:44;23.80;56.00
45060;DHT22;30799;49.060;9.312;2022-09-03T12:14:57;23.80;56.00
45060;DHT22;30799;49.060;9.312;2022-09-03T12:17:52;23.80;56.00
45060;DHT22;30799;49.060;9.312;2022-09-03T12:20:40;23.80;56.00
45060;DHT22;30799;49.060;9.312;2022-09-03T12:23:10;23.80;56.00
45060;DHT22;30799;49.060;9.312;2022-09-03T12:25:44;23.80;56.00
45060;DHT22;30799;49.060;9.312;2022-09-03T12:28:19;23.80;56.00
45060;DHT22;30799;49.060;9.312;2022-09-03T12:30:50;23.80;56.00
45060;DHT22;30799;49.060;9.312;2022-09-03T12:33:21;23.80;56.00
45060;DHT22;30799;49.060;9.312;2022-09-03T12:35:55;23.80;56.00
45060;DHT22;30799;49.060;9.312;2022-09-03T12:38:28;23.80;56.00
45060;DHT22;30799;49.060;9.312;2022-09-03T12:41:23;23.80;56.00
45060;DHT22;30799;49.060;9.312;2022-09-03T12:43:55;23.80;56.00
45060;DHT22;30799;49.060;9.312;2022-09-03T12:46:28;23.80;56.10
45060;DHT22;30799;49.060;9.312;2022-09-03T12:49:04;23.80;56.10
45060;DHT22;30799;49.060;9.312;2022-09-03T12:54:52;23.80;56.10
45060;DHT22;30799;49.060;9.312;2022-09-03T12:57:24;23.90;56.10
45060;DHT22;30799;49.060;9.312;2022-09-03T12:59:57;23.80;56.10
45060;DHT22;30799;49.060;9.312;2022-09-03T13:02:29;23.80;56.10
45060;DHT22;30799;49.060;9.312;2022-09-03T13:04:58;23.80;56.10
45060;DHT22;30799;49.060;9.312;2022-09-03T13:07:30;23.80;56.10
45060;DHT22;30799;49.060;9.312;2022-09-03T13:10:05;23.80;56.10
45060;DHT22;30799;49.060;9.312;2022-09-03T13:12:44;23.80;56.10
45060;DHT22;30799;49.060;9.312;2022-09-03T13:15:23;23.80;56.10
45060;DHT22;30799;49.060;9.312;2022-09-03T13:20:39;23.80;56.10
45060;DHT22;30799;49.060;9.312;2022-09-03T13:23:19;23.90;56.20
45060;DHT22;30799;49.060;9.312;2022-09-03T13:31:57;23.80;56.10
45060;DHT22;30799;49.060;9.312;2022-09-03T13:34:36;23.90;56.20
45060;DHT22;30799;49.060;9.312;2022-09-03T13:40:22;23.80;56.20
45060;DHT22;30799;49.060;9.312;2022-09-03T13:42:57;23.80;56.20
45060;DHT22;30799;49.060;9.312;2022-09-03T13:45:49;23.80;56.20
45060;DHT22;30799;49.060;9.312;2022-09-03T13:48:21;23.90;56.20
45060;DHT22;30799;49.060;9.312;2022-09-03T13:51:17;23.80;56.20
45060;DHT22;30799;49.060;9.312;2022-09-03T13:56:28;23.90;56.30
45060;DHT22;30799;49.060;9.312;2022-09-03T13:59:17;23.80;56.20
45060;DHT22;30799;49.060;9.312;2022-09-03T14:01:59;23.80;56.20
45060;DHT22;30799;49.060;9.312;2022-09-03T14:04:43;23.90;56.30
45060;DHT22;30799;49.060;9.312;2022-09-03T14:07:17;23.90;56.30
45060;DHT22;30799;49.060;9.312;2022-09-03T14:09:58;23.90;56.30
45060;DHT22;30799;49.060;9.312;2022-09-03T14:12:38;23.90;56.30
45060;DHT22;30799;49.060;9.312;2022-09-03T14:18:30;23.90;56.30
45060;DHT22;30799;49.060;9.312;2022-09-03T14:21:06;23.80;56.20
45060;DHT22;30799;49.060;9.312;2022-09-03T14:23:47;23.90;56.30
45060;DHT22;30799;49.060;9.312;2022-09-03T14:26:30;23.90;56.30
45060;DHT22;30799;49.060;9.312;2022-09-03T14:35:16;23.90;56.90
45060;DHT22;30799;49.060;9.312;2022-09-03T14:38:13;23.80;56.30
45060;DHT22;30799;49.060;9.312;2022-09-03T14:41:29;23.90;56.30
45060;DHT22;30799;49.060;9.312;2022-09-03T14:57:24;23.90;56.40
45060;DHT22;30799;49.060;9.312;2022-09-03T15:00:13;23.90;56.40
45060;DHT22;30799;49.060;9.312;2022-09-03T15:08:12;23.90;56.50
45060;DHT22;30799;49.060;9.312;2022-09-03T15:10:49;23.90;56.40
45060;DHT22;30799;49.060;9.312;2022-09-03T15:13:48;23.90;56.40
45060;DHT22;30799;49.060;9.312;2022-09-03T15:27:18;23.90;56.50
45060;DHT22;30799;49.060;9.312;2022-09-03T15:41:02;23.90;56.70
45060;DHT22;30799;49.060;9.312;2022-09-03T15:43:33;23.80;56.70
45060;DHT22;30799;49.060;9.312;2022-09-03T15:46:06;23.80;56.80
45060;DHT22;30799;49.060;9.312;2022-09-03T15:49:02;23.80;56.80
45060;DHT22;30799;49.060;9.312;2022-09-03T15:51:39;23.80;57.50
45060;DHT22;30799;49.060;9.312;2022-09-03T15:59:50;23.80;57.00
45060;DHT22;30799;49.060;9.312;2022-09-03T16:05:10;23.80;57.00
45060;DHT22;30799;49.060;9.312;2022-09-03T16:11:09;23.80;57.10
45060;DHT22;30799;49.060;9.312;2022-09-03T16:23:03;23.80;57.20
45060;DHT22;30799;49.060;9.312;2022-09-03T16:25:11;23.80;57.10
45060;DHT22;30799;49.060;9.312;2022-09-03T16:28:06;23.80;57.20
45060;DHT22;30799;49.060;9.312;2022-09-03T16:38:56;23.80;57.20
45060;DHT22;30799;49.060;9.312;2022-09-03T16:46:55;23.80;57.20
45060;DHT22;30799;49.060;9.312;2022-09-03T16:49:39;23.80;57.20
45060;DHT22;30799;49.060;9.312;2022-09-03T16:52:16;23.80;57.30
45060;DHT22;30799;49.060;9.312;2022-09-03T16:58:18;23.80;57.30
45060;DHT22;30799;49.060;9.312;2022-09-03T17:01:30;23.80;57.40
45060;DHT22;30799;49.060;9.312;2022-09-03T17:06:54;23.80;57.40
45060;DHT22;30799;49.060;9.312;2022-09-03T17:09:46;23.80;57.40
45060;DHT22;30799;49.060;9.312;2022-09-03T17:15:21;23.80;57.50
45060;DHT22;30799;49.060;9.312;2022-09-03T17:21:00;23.80;57.40
45060;DHT22;30799;49.060;9.312;2022-09-03T17:40:17;23.80;57.50
45060;DHT22;30799;49.060;9.312;2022-09-03T17:51:32;23.80;57.50
45060;DHT22;30799;49.060;9.312;2022-09-03T17:56:52;23.80;57.50
45060;DHT22;30799;49.060;9.312;2022-09-03T17:59:51;23.80;57.60
45060;DHT22;30799;49.060;9.312;2022-09-03T18:02:32;23.80;57.60
45060;DHT22;30799;49.060;9.312;2022-09-03T18:05:07;24.00;57.70
45060;DHT22;30799;49.060;9.312;2022-09-03T18:10:22;23.80;57.60
45060;DHT22;30799;49.060;9.312;2022-09-03T18:12:56;23.80;57.60
45060;DHT22;30799;49.060;9.312;2022-09-03T18:15:36;23.80;57.60
45060;DHT22;30799;49.060;9.312;2022-09-03T18:18:10;23.80;57.70
45060;DHT22;30799;49.060;9.312;2022-09-03T18:20:49;23.80;57.70
45060;DHT22;30799;49.060;9.312;2022-09-03T18:24:03;23.80;57.60
45060;DHT22;30799;49.060;9.312;2022-09-03T18:27:01;23.80;57.70
45060;DHT22;30799;49.060;9.312;2022-09-03T18:30:03;23.80;57.70
45060;DHT22;30799;49.060;9.312;2022-09-03T18:32:49;23.80;57.70
45060;DHT22;30799;49.060;9.312;2022-09-03T18:35:35;23.80;57.70
45060;DHT22;30799;49.060;9.312;2022-09-03T18:38:30;23.80;57.70
45060;DHT22;30799;49.060;9.312;2022-09-03T18:44:25;23.80;57.80
45060;DHT22;30799;49.060;9.312;2022-09-03T18:47:25;23.80;57.70
45060;DHT22;30799;49.060;9.312;2022-09-03T18:53:44;23.80;57.70
45060;DHT22;30799;49.060;9.312;2022-09-03T18:56:44;23.80;57.80
45060;DHT22;30799;49.060;9.312;2022-09-03T19:12:04;23.80;57.80
45060;DHT22;30799;49.060;9.312;2022-09-03T19:15:16;23.80;57.80
45060;DHT22;30799;49.060;9.312;2022-09-03T19:18:22;23.80;57.80
45060;DHT22;30799;49.060;9.312;2022-09-03T19:21:30;23.80;57.90
45060;DHT22;30799;49.060;9.312;2022-09-03T19:24:27;23.80;57.80
45060;DHT22;30799;49.060;9.312;2022-09-03T19:27:44;23.80;57.80
45060;DHT22;30799;49.060;9.312;2022-09-03T19:34:17;23.80;57.90
45060;DHT22;30799;49.060;9.312;2022-09-03T19:37:26;23.80;57.80
45060;DHT22;30799;49.060;9.312;2022-09-03T19:40:32;23.80;57.80
45060;DHT22;30799;49.060;9.312;2022-09-03T19:53:00;23.80;57.90
45060;DHT22;30799;49.060;9.312;2022-09-03T19:55:54;23.80;57.80
45060;DHT22;30799;49.060;9.312;2022-09-03T19:58:44;23.80;57.80
45060;DHT22;30799;49.060;9.312;2022-09-03T20:01:36;23.70;57.80
45060;DHT22;30799;49.060;9.312;2022-09-03T20:05:13;23.70;57.90
45060;DHT22;30799;49.060;9.312;2022-09-03T20:07:38;23.80;57.90
45060;DHT22;30799;49.060;9.312;2022-09-03T20:10:23;23.70;57.90
45060;DHT22;30799;49.060;9.312;2022-09-03T20:13:10;23.70;57.90
45060;DHT22;30799;49.060;9.312;2022-09-03T20:21:07;23.70;57.90
45060;DHT22;30799;49.060;9.312;2022-09-03T20:26:44;23.70;57.90
45060;DHT22;30799;49.060;9.312;2022-09-03T20:29:45;23.70;58.00
45060;DHT22;30799;49.060;9.312;2022-09-03T20:35:00;23.70;58.00
45060;DHT22;30799;49.060;9.312;2022-09-03T20:38:24;23.70;57.90
45060;DHT22;30799;49.060;9.312;2022-09-03T20:43:37;23.70;57.90
45060;DHT22;30799;49.060;9.312;2022-09-03T20:46:46;23.70;58.00
45060;DHT22;30799;49.060;9.312;2022-09-03T20:49:51;23.70;58.00
45060;DHT22;30799;49.060;9.312;2022-09-03T20:55:20;23.70;58.00
45060;DHT22;30799;49.060;9.312;2022-09-03T21:01:01;23.70;58.00
45060;DHT22;30799;49.060;9.312;2022-09-03T21:11:51;23.70;58.00
45060;DHT22;30799;49.060;9.312;2022-09-03T21:14:24;23.70;58.00
45060;DHT22;30799;49.060;9.312;2022-09-03T21:20:09;23.70;58.00
45060;DHT22;30799;49.060;9.312;2022-09-03T21:22:44;23.70;58.00
45060;DHT22;30799;49.060;9.312;2022-09-03T21:25:37;23.70;58.00
45060;DHT22;30799;49.060;9.312;2022-09-03T21:28:13;23.70;58.00
45060;DHT22;30799;49.060;9.312;2022-09-03T21:30:46;23.70;58.00
45060;DHT22;30799;49.060;9.312;2022-09-03T21:33:34;23.70;58.10